sensor_id;sensor_type;location;lat;lon;timestamp;P1;durP1;ratioP1;P2;durP2;ratioP2
25139;SDS011;39015;48.106;-1.682;2023-02-12T08:36:47;3.97;;;2.53;;
25139;SDS011;39015;48.106;-1.682;2023-02-12T08:39:15;5.13;;;2.53;;
25139;SDS011;39015;48.106;-1.682;2023-02-12T08:41:44;3.40;;;2.40;;
25139;SDS011;39015;48.106;-1.682;2023-02-12T08:44:13;2.83;;;2.05;;
25139;SDS011;39015;48.106;-1.682;2023-02-12T08:46:42;4.32;;;2.40;;
25139;SDS011;39015;48.106;-1.682;2023-02-12T08:49:12;4.35;;;2.60;;
25139;SDS011;39015;48.106;-1.682;2023-02-12T08:51:41;5.55;;;3.03;;
25139;SDS011;39015;48.106;-1.682;2023-02-12T08:54:10;7.00;;;2.50;;
25139;SDS011;39015;48.106;-1.682;2023-02-12T08:56:38;4.07;;;2.50;;
25139;SDS011;39015;48.106;-1.682;2023-02-12T08:59:06;6.00;;;2.55;;
25139;SDS011;39015;48.106;-1.682;2023-02-12T09:01:35;5.57;;;2.67;;
25139;SDS011;39015;48.106;-1.682;2023-02-12T09:04:05;5.07;;;3.05;;
25139;SDS011;39015;48.106;-1.682;2023-02-12T09:06:34;6.20;;;3.75;;
25139;SDS011;39015;48.106;-1.682;2023-02-12T09:09:01;5.75;;;2.88;;
25139;SDS011;39015;48.106;-1.682;2023-02-12T09:11:29;5.28;;;3.00;;
25139;SDS011;39015;48.106;-1.682;2023-02-12T09:13:59;5.80;;;3.13;;
25139;SDS011;39015;48.106;-1.682;2023-02-12T09:16:30;7.00;;;2.47;;
25139;SDS011;39015;48.106;-1.682;2023-02-12T09:18:58;4.15;;;2.80;;
25139;SDS011;39015;48.106;-1.682;2023-02-12T09:21:25;5.57;;;3.08;;
25139;SDS011;39015;48.106;-1.682;2023-02-12T09:23:53;4.55;;;2.65;;
25139;SDS011;39015;48.106;-1.682;2023-02-12T09:26:21;5.07;;;2.33;;
25139;SDS011;39015;48.106;-1.682;2023-02-12T09:28:55;6.22;;;2.55;;
25139;SDS011;39015;48.106;-1.682;2023-02-12T09:31:23;4.63;;;2.60;;
25139;SDS011;39015;48.106;-1.682;2023-02-12T09:33:51;4.20;;;2.25;;
25139;SDS011;39015;48.106;-1.682;2023-02-12T09:36:23;7.68;;;2.92;;
25139;SDS011;39015;48.106;-1.682;2023-02-12T09:38:51;5.00;;;3.28;;
25139;SDS011;39015;48.106;-1.682;2023-02-12T09:41:25;3.58;;;2.05;;
25139;SDS011;39015;48.106;-1.682;2023-02-12T09:44:10;4.53;;;2.25;;
25139;SDS011;39015;48.106;-1.682;2023-02-12T09:46:47;7.15;;;2.80;;
25139;SDS011;39015;48.106;-1.682;2023-02-12T09:49:22;5.80;;;2.88;;
25139;SDS011;39015;48.106;-1.682;2023-02-12T09:52:05;7.82;;;3.60;;
25139;SDS011;39015;48.106;-1.682;2023-02-12T09:54:38;6.38;;;2.88;;
25139;SDS011;39015;48.106;-1.682;2023-02-12T09:57:10;6.20;;;2.92;;
25139;SDS011;39015;48.106;-1.682;2023-02-12T09:59:44;8.30;;;3.03;;
25139;SDS011;39015;48.106;-1.682;2023-02-12T10:02:15;5.60;;;2.67;;
25139;SDS011;39015;48.106;-1.682;2023-02-12T10:04:44;4.70;;;2.63;;
25139;SDS011;39015;48.106;-1.682;2023-02-12T10:07:14;5.65;;;3.28;;
25139;SDS011;39015;48.106;-1.682;2023-02-12T10:09:55;6.60;;;3.65;;
25139;SDS011;39015;48.106;-1.682;2023-02-12T10:12:33;6.28;;;2.60;;
25139;SDS011;39015;48.106;-1.682;2023-02-12T10:15:16;5.30;;;2.67;;
25139;SDS011;39015;48.106;-1.682;2023-02-12T10:17:54;4.75;;;2.67;;
25139;SDS011;39015;48.106;-1.682;2023-02-12T10:20:32;5.45;;;2.67;;
25139;SDS011;39015;48.106;-1.682;2023-02-12T10:26:12;4.75;;;2.20;;
25139;SDS011;39015;48.106;-1.682;2023-02-12T10:28:43;8.40;;;3.63;;
25139;SDS011;39015;48.106;-1.682;2023-02-12T10:31:14;12.70;;;2.63;;
25139;SDS011;39015;48.106;-1.682;2023-02-12T10:33:45;4.90;;;2.67;;
25139;SDS011;39015;48.106;-1.682;2023-02-12T10:36:15;7.90;;;3.05;;
25139;SDS011;39015;48.106;-1.682;2023-02-12T10:38:54;5.10;;;2.38;;
25139;SDS011;39015;48.106;-1.682;2023-02-12T10:41:26;6.55;;;2.58;;
25139;SDS011;39015;48.106;-1.682;2023-02-12T10:43:56;6.93;;;2.67;;
25139;SDS011;39015;48.106;-1.682;2023-02-12T10:46:26;3.58;;;1.98;;
25139;SDS011;39015;48.106;-1.682;2023-02-12T10:48:55;5.35;;;2.70;;
25139;SDS011;39015;48.106;-1.682;2023-02-12T10:54:35;4.05;;;2.33;;
25139;SDS011;39015;48.106;-1.682;2023-02-12T10:57:06;5.28;;;3.20;;
25139;SDS011;39015;48.106;-1.682;2023-02-12T10:59:36;5.53;;;2.70;;
25139;SDS011;39015;48.106;-1.682;2023-02-12T11:02:13;6.80;;;2.53;;
25139;SDS011;39015;48.106;-1.682;2023-02-12T11:04:46;5.20;;;2.33;;
25139;SDS011;39015;48.106;-1.682;2023-02-12T11:07:14;4.32;;;2.63;;
25139;SDS011;39015;48.106;-1.682;2023-02-12T11:09:42;5.32;;;2.90;;
25139;SDS011;39015;48.106;-1.682;2023-02-12T11:14:52;6.28;;;2.80;;
25139;SDS011;39015;48.106;-1.682;2023-02-12T11:17:24;11.70;;;3.85;;
25139;SDS011;39015;48.106;-1.682;2023-02-12T11:20:02;4.72;;;2.50;;
25139;SDS011;39015;48.106;-1.682;2023-02-12T11:22:34;6.88;;;3.53;;
25139;SDS011;39015;48.106;-1.682;2023-02-12T11:25:13;7.55;;;2.92;;
25139;SDS011;39015;48.106;-1.682;2023-02-12T11:27:41;4.70;;;2.55;;
25139;SDS011;39015;48.106;-1.682;2023-02-12T11:30:13;8.40;;;2.63;;
25139;SDS011;39015;48.106;-1.682;2023-02-12T11:32:44;4.88;;;2.78;;
25139;SDS011;39015;48.106;-1.682;2023-02-12T11:35:15;12.48;;;2.85;;
25139;SDS011;39015;48.106;-1.682;2023-02-12T11:37:50;5.88;;;2.63;;
25139;SDS011;39015;48.106;-1.682;2023-02-12T11:40:21;6.85;;;2.22;;
25139;SDS011;39015;48.106;-1.682;2023-02-12T11:42:55;8.40;;;3.00;;
25139;SDS011;39015;48.106;-1.682;2023-02-12T11:45:30;4.80;;;2.50;;
25139;SDS011;39015;48.106;-1.682;2023-02-12T11:48:04;4.22;;;2.25;;
25139;SDS011;39015;48.106;-1.682;2023-02-12T11:50:46;6.35;;;3.30;;
25139;SDS011;39015;48.106;-1.682;2023-02-12T11:53:20;5.60;;;2.83;;
25139;SDS011;39015;48.106;-1.682;2023-02-12T11:55:53;5.32;;;3.42;;
25139;SDS011;39015;48.106;-1.682;2023-02-12T11:58:23;4.25;;;2.35;;
25139;SDS011;39015;48.106;-1.682;2023-02-12T12:01:02;5.10;;;2.80;;
25139;SDS011;39015;48.106;-1.682;2023-02-12T12:03:42;4.75;;;2.58;;
25139;SDS011;39015;48.106;-1.682;2023-02-12T12:06:21;4.68;;;3.08;;
25139;SDS011;39015;48.106;-1.682;2023-02-12T12:08:56;5.70;;;2.65;;
25139;SDS011;39015;48.106;-1.682;2023-02-12T12:11:35;4.10;;;2.50;;
25139;SDS011;39015;48.106;-1.682;2023-02-12T12:14:14;4.75;;;2.45;;
25139;SDS011;39015;48.106;-1.682;2023-02-12T12:16:48;4.60;;;2.25;;
25139;SDS011;39015;48.106;-1.682;2023-02-12T12:19:39;3.53;;;2.10;;
25139;SDS011;39015;48.106;-1.682;2023-02-12T12:22:32;8.60;;;2.55;;
25139;SDS011;39015;48.106;-1.682;2023-02-12T12:25:15;2.45;;;2.25;;
25139;SDS011;39015;48.106;-1.682;2023-02-12T12:27:53;4.22;;;1.80;;
25139;SDS011;39015;48.106;-1.682;2023-02-12T12:30:35;5.05;;;2.40;;
25139;SDS011;39015;48.106;-1.682;2023-02-12T12:33:07;5.75;;;2.65;;
25139;SDS011;39015;48.106;-1.682;2023-02-12T12:35:42;5.25;;;2.42;;
25139;SDS011;39015;48.106;-1.682;2023-02-12T12:38:18;5.45;;;2.33;;
25139;SDS011;39015;48.106;-1.682;2023-02-12T12:40:58;6.75;;;2.80;;
25139;SDS011;39015;48.106;-1.682;2023-02-12T12:43:33;6.82;;;2.72;;
25139;SDS011;39015;48.106;-1.682;2023-02-12T12:46:15;4.60;;;1.95;;
25139;SDS011;39015;48.106;-1.682;2023-02-12T12:49:12;5.32;;;2.60;;
25139;SDS011;39015;48.106;-1.682;2023-02-12T12:52:06;3.50;;;2.17;;
25139;SDS011;39015;48.106;-1.682;2023-02-12T12:54:54;8.73;;;2.63;;
25139;SDS011;39015;48.106;-1.682;2023-02-12T12:57:35;4.70;;;1.92;;
25139;SDS011;39015;48.106;-1.682;2023-02-12T13:00:20;5.85;;;2.13;;
25139;SDS011;39015;48.106;-1.682;2023-02-12T13:09:27;6.90;;;2.30;;
25139;SDS011;39015;48.106;-1.682;2023-02-12T13:12:10;3.63;;;1.85;;
25139;SDS011;39015;48.106;-1.682;2023-02-12T13:14:46;3.45;;;2.10;;
25139;SDS011;39015;48.106;-1.682;2023-02-12T13:17:18;3.70;;;1.98;;
25139;SDS011;39015;48.106;-1.682;2023-02-12T13:19:54;3.75;;;2.20;;
25139;SDS011;39015;48.106;-1.682;2023-02-12T13:22:29;6.85;;;2.67;;
25139;SDS011;39015;48.106;-1.682;2023-02-12T13:25:04;4.75;;;2.50;;
25139;SDS011;39015;48.106;-1.682;2023-02-12T13:27:42;7.28;;;2.45;;
25139;SDS011;39015;48.106;-1.682;2023-02-12T13:30:22;3.92;;;2.15;;
25139;SDS011;39015;48.106;-1.682;2023-02-12T13:33:03;3.25;;;1.77;;
25139;SDS011;39015;48.106;-1.682;2023-02-12T13:35:46;2.85;;;1.67;;
25139;SDS011;39015;48.106;-1.682;2023-02-12T13:38:27;2.88;;;1.70;;
25139;SDS011;39015;48.106;-1.682;2023-02-12T13:41:04;5.05;;;2.13;;
25139;SDS011;39015;48.106;-1.682;2023-02-12T13:43:40;2.80;;;2.13;;
25139;SDS011;39015;48.106;-1.682;2023-02-12T13:46:17;3.35;;;1.90;;
25139;SDS011;39015;48.106;-1.682;2023-02-12T13:48:51;3.08;;;1.40;;
25139;SDS011;39015;48.106;-1.682;2023-02-12T13:51:28;6.68;;;2.78;;
25139;SDS011;39015;48.106;-1.682;2023-02-12T13:54:10;10.30;;;2.20;;
25139;SDS011;39015;48.106;-1.682;2023-02-12T13:56:49;3.72;;;2.15;;
25139;SDS011;39015;48.106;-1.682;2023-02-12T14:05:18;5.78;;;2.30;;
25139;SDS011;39015;48.106;-1.682;2023-02-12T14:07:50;3.15;;;1.88;;
25139;SDS011;39015;48.106;-1.682;2023-02-12T14:10:20;3.28;;;1.42;;
25139;SDS011;39015;48.106;-1.682;2023-02-12T14:12:51;4.53;;;2.15;;
25139;SDS011;39015;48.106;-1.682;2023-02-12T14:15:25;3.78;;;2.22;;
25139;SDS011;39015;48.106;-1.682;2023-02-12T14:18:00;4.53;;;1.83;;
25139;SDS011;39015;48.106;-1.682;2023-02-12T14:20:32;4.63;;;2.17;;
25139;SDS011;39015;48.106;-1.682;2023-02-12T14:25:35;2.30;;;1.23;;
25139;SDS011;39015;48.106;-1.682;2023-02-12T14:28:11;4.53;;;2.20;;
25139;SDS011;39015;48.106;-1.682;2023-02-12T14:33:46;3.83;;;1.60;;
25139;SDS011;39015;48.106;-1.682;2023-02-12T14:41:30;3.88;;;1.83;;
25139;SDS011;39015;48.106;-1.682;2023-02-12T14:50:25;3.08;;;1.67;;
25139;SDS011;39015;48.106;-1.682;2023-02-12T14:53:05;2.53;;;1.40;;
25139;SDS011;39015;48.106;-1.682;2023-02-12T14:55:45;2.20;;;1.60;;
25139;SDS011;39015;48.106;-1.682;2023-02-12T14:58:15;1.85;;;1.10;;
25139;SDS011;39015;48.106;-1.682;2023-02-12T15:00:45;2.60;;;1.58;;
25139;SDS011;39015;48.106;-1.682;2023-02-12T15:03:16;4.03;;;1.67;;
25139;SDS011;39015;48.106;-1.682;2023-02-12T15:05:49;5.78;;;1.92;;
25139;SDS011;39015;48.106;-1.682;2023-02-12T15:08:25;2.92;;;2.20;;
25139;SDS011;39015;48.106;-1.682;2023-02-12T15:10:58;2.63;;;1.73;;
25139;SDS011;39015;48.106;-1.682;2023-02-12T15:13:35;1.98;;;1.77;;
25139;SDS011;39015;48.106;-1.682;2023-02-12T15:16:14;2.13;;;1.38;;
25139;SDS011;39015;48.106;-1.682;2023-02-12T15:18:50;4.50;;;1.30;;
25139;SDS011;39015;48.106;-1.682;2023-02-12T15:21:21;3.13;;;1.45;;
25139;SDS011;39015;48.106;-1.682;2023-02-12T15:23:59;2.50;;;1.33;;
25139;SDS011;39015;48.106;-1.682;2023-02-12T15:26:28;2.72;;;1.80;;
25139;SDS011;39015;48.106;-1.682;2023-02-12T15:28:58;4.55;;;1.70;;
25139;SDS011;39015;48.106;-1.682;2023-02-12T15:31:29;2.00;;;1.30;;
25139;SDS011;39015;48.106;-1.682;2023-02-12T15:33:59;2.67;;;1.75;;
25139;SDS011;39015;48.106;-1.682;2023-02-12T15:36:29;2.50;;;1.48;;
25139;SDS011;39015;48.106;-1.682;2023-02-12T15:38:59;2.00;;;1.17;;
25139;SDS011;39015;48.106;-1.682;2023-02-12T15:41:33;3.42;;;1.60;;
25139;SDS011;39015;48.106;-1.682;2023-02-12T15:44:03;4.38;;;1.92;;
25139;SDS011;39015;48.106;-1.682;2023-02-12T15:47:00;2.88;;;1.33;;
25139;SDS011;39015;48.106;-1.682;2023-02-12T15:49:35;3.20;;;1.58;;
25139;SDS011;39015;48.106;-1.682;2023-02-12T15:52:05;2.63;;;1.17;;
25139;SDS011;39015;48.106;-1.682;2023-02-12T15:54:34;4.65;;;1.88;;
25139;SDS011;39015;48.106;-1.682;2023-02-12T15:57:08;3.20;;;1.57;;
25139;SDS011;39015;48.106;-1.682;2023-02-12T15:59:36;2.25;;;1.30;;
25139;SDS011;39015;48.106;-1.682;2023-02-12T16:02:15;5.32;;;1.92;;
25139;SDS011;39015;48.106;-1.682;2023-02-12T16:04:45;2.60;;;1.33;;
25139;SDS011;39015;48.106;-1.682;2023-02-12T16:07:13;2.70;;;1.73;;
25139;SDS011;39015;48.106;-1.682;2023-02-12T16:09:41;5.45;;;1.92;;
25139;SDS011;39015;48.106;-1.682;2023-02-12T16:12:11;2.92;;;1.52;;
25139;SDS011;39015;48.106;-1.682;2023-02-12T16:14:42;2.58;;;1.92;;
25139;SDS011;39015;48.106;-1.682;2023-02-12T16:17:24;2.22;;;1.75;;
25139;SDS011;39015;48.106;-1.682;2023-02-12T16:19:56;1.88;;;1.17;;
25139;SDS011;39015;48.106;-1.682;2023-02-12T16:22:30;2.92;;;1.73;;
25139;SDS011;39015;48.106;-1.682;2023-02-12T16:25:08;5.80;;;1.35;;
25139;SDS011;39015;48.106;-1.682;2023-02-12T16:27:48;2.38;;;1.20;;
25139;SDS011;39015;48.106;-1.682;2023-02-12T16:30:27;2.42;;;1.38;;
25139;SDS011;39015;48.106;-1.682;2023-02-12T16:32:59;2.22;;;1.20;;
25139;SDS011;39015;48.106;-1.682;2023-02-12T16:35:29;1.80;;;1.15;;
25139;SDS011;39015;48.106;-1.682;2023-02-12T16:37:59;1.80;;;1.63;;
25139;SDS011;39015;48.106;-1.682;2023-02-12T16:40:32;3.35;;;1.33;;
25139;SDS011;39015;48.106;-1.682;2023-02-12T16:43:02;1.23;;;1.13;;
25139;SDS011;39015;48.106;-1.682;2023-02-12T16:45:50;3.92;;;1.77;;
25139;SDS011;39015;48.106;-1.682;2023-02-12T16:48:32;3.75;;;1.83;;
25139;SDS011;39015;48.106;-1.682;2023-02-12T16:51:04;1.42;;;1.20;;
25139;SDS011;39015;48.106;-1.682;2023-02-12T16:53:46;3.72;;;1.90;;
25139;SDS011;39015;48.106;-1.682;2023-02-12T16:56:15;3.10;;;1.48;;
25139;SDS011;39015;48.106;-1.682;2023-02-12T16:58:46;4.55;;;1.88;;
25139;SDS011;39015;48.106;-1.682;2023-02-12T17:01:21;1.27;;;1.00;;
25139;SDS011;39015;48.106;-1.682;2023-02-12T17:03:57;2.28;;;1.45;;
25139;SDS011;39015;48.106;-1.682;2023-02-12T17:06:26;2.67;;;1.45;;
25139;SDS011;39015;48.106;-1.682;2023-02-12T17:08:57;1.45;;;1.35;;
25139;SDS011;39015;48.106;-1.682;2023-02-12T17:11:26;1.45;;;1.25;;
25139;SDS011;39015;48.106;-1.682;2023-02-12T17:13:54;2.95;;;1.20;;
25139;SDS011;39015;48.106;-1.682;2023-02-12T17:16:23;2.20;;;1.52;;
25139;SDS011;39015;48.106;-1.682;2023-02-12T17:18:53;2.15;;;1.65;;
25139;SDS011;39015;48.106;-1.682;2023-02-12T17:21:23;1.73;;;1.40;;
25139;SDS011;39015;48.106;-1.682;2023-02-12T17:23:52;0.90;;;0.90;;
25139;SDS011;39015;48.106;-1.682;2023-02-12T17:26:20;1.50;;;1.20;;
25139;SDS011;39015;48.106;-1.682;2023-02-12T17:28:48;2.30;;;1.58;;
25139;SDS011;39015;48.106;-1.682;2023-02-12T17:31:15;1.70;;;1.02;;
25139;SDS011;39015;48.106;-1.682;2023-02-12T17:33:44;2.25;;;1.38;;
25139;SDS011;39015;48.106;-1.682;2023-02-12T17:36:17;1.35;;;0.93;;
25139;SDS011;39015;48.106;-1.682;2023-02-12T17:38:45;2.97;;;1.67;;
25139;SDS011;39015;48.106;-1.682;2023-02-12T17:41:13;5.28;;;2.30;;
25139;SDS011;39015;48.106;-1.682;2023-02-12T17:43:43;1.55;;;1.15;;
25139;SDS011;39015;48.106;-1.682;2023-02-12T17:46:11;3.60;;;1.90;;
25139;SDS011;39015;48.106;-1.682;2023-02-12T17:48:39;1.63;;;1.50;;
25139;SDS011;39015;48.106;-1.682;2023-02-12T17:51:06;2.08;;;1.27;;
25139;SDS011;39015;48.106;-1.682;2023-02-12T17:53:36;4.18;;;1.48;;
25139;SDS011;39015;48.106;-1.682;2023-02-12T17:56:08;2.58;;;1.50;;
25139;SDS011;39015;48.106;-1.682;2023-02-12T17:58:36;3.30;;;1.40;;
25139;SDS011;39015;48.106;-1.682;2023-02-12T18:01:03;1.35;;;1.25;;
25139;SDS011;39015;48.106;-1.682;2023-02-12T18:03:31;5.65;;;1.88;;
25139;SDS011;39015;48.106;-1.682;2023-02-12T18:05:59;2.45;;;1.30;;
25139;SDS011;39015;48.106;-1.682;2023-02-12T18:08:26;1.90;;;1.33;;
25139;SDS011;39015;48.106;-1.682;2023-02-12T18:10:54;2.85;;;2.00;;
25139;SDS011;39015;48.106;-1.682;2023-02-12T18:13:21;2.65;;;1.38;;
25139;SDS011;39015;48.106;-1.682;2023-02-12T18:15:50;4.20;;;1.70;;
25139;SDS011;39015;48.106;-1.682;2023-02-12T18:18:17;2.65;;;1.60;;
25139;SDS011;39015;48.106;-1.682;2023-02-12T18:20:45;5.05;;;2.17;;
25139;SDS011;39015;48.106;-1.682;2023-02-12T18:23:15;3.88;;;2.22;;
25139;SDS011;39015;48.106;-1.682;2023-02-12T18:25:42;4.03;;;1.95;;
25139;SDS011;39015;48.106;-1.682;2023-02-12T18:28:11;3.42;;;2.13;;
25139;SDS011;39015;48.106;-1.682;2023-02-12T18:30:38;4.63;;;1.75;;
25139;SDS011;39015;48.106;-1.682;2023-02-12T18:33:07;2.97;;;1.70;;
25139;SDS011;39015;48.106;-1.682;2023-02-12T18:35:35;5.10;;;1.98;;
25139;SDS011;39015;48.106;-1.682;2023-02-12T18:38:02;1.77;;;1.38;;
25139;SDS011;39015;48.106;-1.682;2023-02-12T18:40:32;2.50;;;1.83;;
25139;SDS011;39015;48.106;-1.682;2023-02-12T18:42:59;4.30;;;2.05;;
25139;SDS011;39015;48.106;-1.682;2023-02-12T18:45:28;3.42;;;1.83;;
25139;SDS011;39015;48.106;-1.682;2023-02-12T18:47:55;2.63;;;1.73;;
25139;SDS011;39015;48.106;-1.682;2023-02-12T18:50:22;3.78;;;2.28;;
25139;SDS011;39015;48.106;-1.682;2023-02-12T18:52:49;4.13;;;1.55;;
25139;SDS011;39015;48.106;-1.682;2023-02-12T18:55:19;3.17;;;1.77;;
25139;SDS011;39015;48.106;-1.682;2023-02-12T18:57:49;3.95;;;1.85;;
25139;SDS011;39015;48.106;-1.682;2023-02-12T19:00:17;3.90;;;2.00;;
25139;SDS011;39015;48.106;-1.682;2023-02-12T19:02:48;6.18;;;2.03;;
25139;SDS011;39015;48.106;-1.682;2023-02-12T19:05:15;3.20;;;1.65;;
25139;SDS011;39015;48.106;-1.682;2023-02-12T19:07:44;2.70;;;2.03;;
25139;SDS011;39015;48.106;-1.682;2023-02-12T19:10:11;4.00;;;2.20;;
25139;SDS011;39015;48.106;-1.682;2023-02-12T19:12:38;3.20;;;1.40;;
25139;SDS011;39015;48.106;-1.682;2023-02-12T19:15:05;4.05;;;1.77;;
25139;SDS011;39015;48.106;-1.682;2023-02-12T19:17:32;4.63;;;2.55;;
25139;SDS011;39015;48.106;-1.682;2023-02-12T19:20:01;4.80;;;2.30;;
25139;SDS011;39015;48.106;-1.682;2023-02-12T19:22:28;5.10;;;2.28;;
25139;SDS011;39015;48.106;-1.682;2023-02-12T19:24:55;4.38;;;2.22;;
25139;SDS011;39015;48.106;-1.682;2023-02-12T19:27:22;6.50;;;2.55;;
25139;SDS011;39015;48.106;-1.682;2023-02-12T19:29:49;4.63;;;2.00;;
25139;SDS011;39015;48.106;-1.682;2023-02-12T19:32:16;8.90;;;2.95;;
25139;SDS011;39015;48.106;-1.682;2023-02-12T19:34:43;5.88;;;2.83;;
25139;SDS011;39015;48.106;-1.682;2023-02-12T19:37:12;4.63;;;1.90;;
25139;SDS011;39015;48.106;-1.682;2023-02-12T19:39:39;4.45;;;2.05;;
25139;SDS011;39015;48.106;-1.682;2023-02-12T19:42:07;6.00;;;2.75;;
25139;SDS011;39015;48.106;-1.682;2023-02-12T19:44:36;3.83;;;2.38;;
25139;SDS011;39015;48.106;-1.682;2023-02-12T19:47:04;6.10;;;2.38;;
25139;SDS011;39015;48.106;-1.682;2023-02-12T19:49:32;6.63;;;3.33;;
25139;SDS011;39015;48.106;-1.682;2023-02-12T19:52:02;5.47;;;3.13;;
25139;SDS011;39015;48.106;-1.682;2023-02-12T19:54:31;5.90;;;3.30;;
25139;SDS011;39015;48.106;-1.682;2023-02-12T19:56:58;9.02;;;3.35;;
25139;SDS011;39015;48.106;-1.682;2023-02-12T19:59:25;7.63;;;2.75;;
25139;SDS011;39015;48.106;-1.682;2023-02-12T20:01:52;6.20;;;2.72;;
25139;SDS011;39015;48.106;-1.682;2023-02-12T20:04:21;8.85;;;3.35;;
25139;SDS011;39015;48.106;-1.682;2023-02-12T20:06:48;5.65;;;2.83;;
25139;SDS011;39015;48.106;-1.682;2023-02-12T20:09:18;8.10;;;3.33;;
25139;SDS011;39015;48.106;-1.682;2023-02-12T20:11:48;8.82;;;3.42;;
25139;SDS011;39015;48.106;-1.682;2023-02-12T20:14:15;5.35;;;3.55;;
25139;SDS011;39015;48.106;-1.682;2023-02-12T20:16:44;5.10;;;3.13;;
25139;SDS011;39015;48.106;-1.682;2023-02-12T20:19:14;6.97;;;3.47;;
25139;SDS011;39015;48.106;-1.682;2023-02-12T20:21:43;6.72;;;3.13;;
25139;SDS011;39015;48.106;-1.682;2023-02-12T20:24:13;6.25;;;2.90;;
25139;SDS011;39015;48.106;-1.682;2023-02-12T20:26:40;6.28;;;3.05;;
25139;SDS011;39015;48.106;-1.682;2023-02-12T20:29:09;6.57;;;2.33;;
25139;SDS011;39015;48.106;-1.682;2023-02-12T20:31:36;6.90;;;3.10;;
25139;SDS011;39015;48.106;-1.682;2023-02-12T20:34:04;7.40;;;3.50;;
25139;SDS011;39015;48.106;-1.682;2023-02-12T20:36:32;7.38;;;3.00;;
25139;SDS011;39015;48.106;-1.682;2023-02-12T20:39:01;11.32;;;3.88;;
25139;SDS011;39015;48.106;-1.682;2023-02-12T20:41:29;7.22;;;3.47;;
25139;SDS011;39015;48.106;-1.682;2023-02-12T20:43:59;5.13;;;2.67;;
25139;SDS011;39015;48.106;-1.682;2023-02-12T20:46:29;6.30;;;2.85;;
25139;SDS011;39015;48.106;-1.682;2023-02-12T20:48:57;11.93;;;3.35;;
25139;SDS011;39015;48.106;-1.682;2023-02-12T20:51:25;7.13;;;3.17;;
25139;SDS011;39015;48.106;-1.682;2023-02-12T20:53:53;7.78;;;2.63;;
25139;SDS011;39015;48.106;-1.682;2023-02-12T20:56:22;8.88;;;3.25;;
25139;SDS011;39015;48.106;-1.682;2023-02-12T20:58:51;6.68;;;3.00;;
25139;SDS011;39015;48.106;-1.682;2023-02-12T21:01:20;3.00;;;2.28;;
25139;SDS011;39015;48.106;-1.682;2023-02-12T21:03:50;8.30;;;2.47;;
25139;SDS011;39015;48.106;-1.682;2023-02-12T21:06:19;4.70;;;2.58;;
25139;SDS011;39015;48.106;-1.682;2023-02-12T21:08:47;6.35;;;2.67;;
25139;SDS011;39015;48.106;-1.682;2023-02-12T21:11:17;9.43;;;2.37;;
25139;SDS011;39015;48.106;-1.682;2023-02-12T21:13:46;5.82;;;2.97;;
25139;SDS011;39015;48.106;-1.682;2023-02-12T21:18:43;3.43;;;2.63;;
25139;SDS011;39015;48.106;-1.682;2023-02-12T21:21:13;8.13;;;3.42;;
25139;SDS011;39015;48.106;-1.682;2023-02-12T21:23:42;4.97;;;2.17;;
